createdAt,value
2019-01-19T00:02:37.756Z,100878.61
2019-01-19T00:07:55.415Z,100884.20
2019-01-19T00:13:18.402Z,100874.50
2019-01-19T00:19:01.643Z,100879.30
2019-01-19T00:24:17.026Z,100873.91
2019-01-19T00:29:33.556Z,100875.59
2019-01-19T00:35:08.479Z,100875.52
2019-01-19T00:40:55.382Z,100877.94
2019-01-19T00:46:38.169Z,100871.88
2019-01-19T00:52:40.450Z,100871.50
2019-01-19T00:58:15.129Z,100878.31
2019-01-19T01:03:26.986Z,100871.66
2019-01-19T01:08:52.063Z,100877.37
2019-01-19T01:14:39.170Z,100877.94
2019-01-19T01:20:18.364Z,100872.88
2019-01-19T01:25:58.411Z,100873.34
2019-01-19T01:31:25.356Z,100872.70
2019-01-19T01:37:21.383Z,100878.59
2019-01-19T01:43:02.615Z,100875.62
2019-01-19T01:48:48.802Z,100876.50
2019-01-19T01:54:49.926Z,100868.60
2019-01-19T02:00:47.151Z,100864.57
2019-01-19T02:06:46.446Z,100863.58
2019-01-19T02:12:17.862Z,100865.36
2019-01-19T02:17:47.147Z,100859.61
2019-01-19T02:23:01.083Z,100857.14
2019-01-19T02:28:33.406Z,100850.06
2019-01-19T02:33:50.034Z,100855.86
2019-01-19T02:39:29.854Z,100847.95
2019-01-19T02:45:29.125Z,100847.02
2019-01-19T02:50:53.631Z,100850.47
2019-01-19T02:56:28.654Z,100847.63
2019-01-19T03:01:39.645Z,100843.13
2019-01-19T03:07:17.986Z,100839.88
2019-01-19T03:13:14.420Z,100843.03
2019-01-19T03:18:49.045Z,100831.78
2019-01-19T03:24:20.555Z,100829.47
2019-01-19T03:29:44.763Z,100830.78
2019-01-19T03:35:16.524Z,100836.09
2019-01-19T03:40:38.971Z,100837.80
2019-01-19T03:46:01.035Z,100838.48
2019-01-19T03:51:16.396Z,100836.21
2019-01-19T03:56:48.781Z,100833.27
2019-01-19T04:02:33.698Z,100832.61
2019-01-19T04:07:49.162Z,100833.29
2019-01-19T04:13:28.131Z,100835.08
2019-01-19T04:19:02.773Z,100836.56
2019-01-19T04:24:15.298Z,100829.55
2019-01-19T04:29:17.236Z,100836.11
2019-01-19T04:34:19.710Z,100832.97
2019-01-19T04:39:21.651Z,100829.63
2019-01-19T04:44:24.060Z,100834.08
2019-01-19T04:49:26.043Z,100824.16
2019-01-19T04:54:28.081Z,100824.55
2019-01-19T04:59:30.027Z,100818.83
2019-01-19T05:04:32.053Z,100816.67
2019-01-19T05:09:34.100Z,100811.62
2019-01-19T05:14:36.021Z,100812.48
2019-01-19T05:19:38.162Z,100816.63
2019-01-19T05:24:40.402Z,100818.52
2019-01-19T05:29:42.322Z,100821.06
2019-01-19T05:34:44.339Z,100818.83
2019-01-19T05:39:46.258Z,100821.11
2019-01-19T05:44:48.435Z,100822.23
2019-01-19T05:49:50.475Z,100820.51
2019-01-19T05:54:52.406Z,100826.42
2019-01-19T05:59:54.367Z,100828.78
2019-01-19T06:04:56.489Z,100830.48
2019-01-19T06:09:58.400Z,100829.61
2019-01-19T06:15:00.339Z,100834.31
2019-01-19T06:20:03.424Z,100836.23
2019-01-19T06:25:06.876Z,100823.44
2019-01-19T06:30:15.073Z,100829.66
2019-01-19T06:35:17.208Z,100833.69
2019-01-19T06:40:19.715Z,100828.63
2019-01-19T06:45:23.992Z,100828.69
2019-01-19T06:50:26.136Z,100832.48
2019-01-19T06:55:30.499Z,100830.59
2019-01-19T07:00:32.622Z,100837.20
2019-01-19T07:05:34.767Z,100837.05
2019-01-19T07:10:36.811Z,100841.41
2019-01-19T07:15:38.729Z,100845.29
2019-01-19T07:20:40.813Z,100852.97
2019-01-19T07:25:43.436Z,100855.39
2019-01-19T07:30:45.593Z,100862.45
2019-01-19T07:35:47.807Z,100858.02
2019-01-19T07:40:49.936Z,100856.05
2019-01-19T07:45:52.076Z,100862.48
2019-01-19T07:50:54.087Z,100862.25
2019-01-19T07:55:56.020Z,100854.99
2019-01-19T08:00:58.005Z,100861.36
2019-01-19T08:06:00.007Z,100867.90
2019-01-19T08:11:03.419Z,100869.01
2019-01-19T08:16:05.497Z,100860.77
2019-01-19T08:21:07.647Z,100859.53
2019-01-19T08:26:10.032Z,100863.81
2019-01-19T08:31:11.958Z,100863.69
2019-01-19T08:36:13.967Z,100860.87
2019-01-19T08:41:15.890Z,100863.87
2019-01-19T08:46:17.821Z,100863.61
2019-01-19T08:51:20.281Z,100867.98
2019-01-19T08:56:41.036Z,100858.95
2019-01-19T09:02:01.616Z,100860.29
2019-01-19T09:07:22.370Z,100853.05
2019-01-19T09:12:43.106Z,100848.40
2019-01-19T09:18:03.840Z,100850.86
2019-01-19T09:23:28.115Z,100852.84
2019-01-19T09:28:48.406Z,100853.30
2019-01-19T09:33:50.970Z,100862.39
2019-01-19T09:38:53.128Z,100851.38
2019-01-19T09:43:55.155Z,100854.56
2019-01-19T09:48:57.180Z,100847.88
2019-01-19T09:54:00.472Z,100843.91
2019-01-19T09:59:02.543Z,100841.85
2019-01-19T10:04:04.720Z,100843.23
2019-01-19T10:09:07.044Z,100842.27
2019-01-19T10:14:10.190Z,100842.91
2019-01-19T10:19:12.714Z,100838.07
2019-01-19T10:24:33.150Z,100834.69
2019-01-19T10:29:35.064Z,100821.58
2019-01-19T10:34:37.540Z,100825.22
2019-01-19T10:39:39.559Z,100828.97
2019-01-19T10:44:41.507Z,100828.97
2019-01-19T10:49:43.430Z,100819.66
2019-01-19T10:54:45.372Z,100813.34
2019-01-19T10:59:48.142Z,100802.87
2019-01-19T11:04:50.091Z,100800.61
2019-01-19T11:09:51.996Z,100793.58
2019-01-19T11:14:53.945Z,100786.10
2019-01-19T11:19:55.843Z,100778.75
2019-01-19T11:24:57.791Z,100774.35
2019-01-19T11:30:00.802Z,100776.61
2019-01-19T11:35:03.275Z,100766.73
2019-01-19T11:40:10.242Z,100761.06
2019-01-19T11:45:14.753Z,100759.35
2019-01-19T11:50:17.261Z,100754.77
2019-01-19T11:55:19.822Z,100751.82
2019-01-19T12:00:25.078Z,100745.19
2019-01-19T12:05:27.175Z,100746.50
2019-01-19T12:10:29.516Z,100734.69
2019-01-19T12:15:31.635Z,100729.59
2019-01-19T12:20:38.834Z,100726.00
2019-01-19T12:25:40.960Z,100723.91
2019-01-19T12:30:43.260Z,100718.23
2019-01-19T12:35:46.170Z,100716.17
2019-01-19T12:40:48.097Z,100714.77
2019-01-19T12:45:58.868Z,100708.95
2019-01-19T12:51:04.107Z,100709.06
2019-01-19T12:56:06.331Z,100704.01
2019-01-19T13:01:08.492Z,100701.02
2019-01-19T13:06:38.288Z,100692.80
2019-01-19T13:12:23.383Z,100684.77
2019-01-19T13:17:54.394Z,100689.17
2019-01-19T13:23:31.419Z,100682.73
2019-01-19T13:29:13.164Z,100667.63
2019-01-19T13:34:59.002Z,100660.98
2019-01-19T13:41:01.076Z,100655.88
2019-01-19T13:46:54.077Z,100653.73
2019-01-19T13:52:28.484Z,100645.31
2019-01-19T13:58:03.639Z,100645.73
2019-01-19T14:04:00.149Z,100641.64
2019-01-19T14:09:54.880Z,100638.67
2019-01-19T14:15:36.164Z,100632.95
2019-01-19T14:21:08.268Z,100629.73
2019-01-19T14:26:35.127Z,100627.02
2019-01-19T14:32:10.988Z,100616.87
2019-01-19T14:37:26.918Z,100620.66
2019-01-19T14:43:00.668Z,100611.66
2019-01-19T14:49:09.085Z,100608.98
2019-01-19T14:54:49.609Z,100608.96
2019-01-19T15:00:48.957Z,100608.07
2019-01-19T15:06:33.997Z,100602.24
2019-01-19T15:12:23.766Z,100597.58
2019-01-19T15:17:48.592Z,100599.17
2019-01-19T15:23:23.218Z,100592.23
2019-01-19T15:28:54.575Z,100591.52
2019-01-19T15:34:46.552Z,100587.03
2019-01-19T15:40:30.133Z,100588.48
2019-01-19T15:46:07.754Z,100583.81
2019-01-19T15:51:43.417Z,100583.33
2019-01-19T15:57:11.004Z,100580.75
2019-01-19T16:02:43.709Z,100578.95
2019-01-19T16:08:30.259Z,100580.64
2019-01-19T16:14:03.577Z,100578.67
2019-01-19T16:19:17.274Z,100577.92
2019-01-19T16:24:32.572Z,100578.48
2019-01-19T16:30:16.223Z,100576.04
2019-01-19T16:35:55.749Z,100571.60
2019-01-19T16:41:35.749Z,100574.56
2019-01-19T16:47:15.185Z,100577.83
2019-01-19T16:52:33.854Z,100579.14
2019-01-19T16:57:54.555Z,100570.93
2019-01-19T17:03:29.200Z,100570.44
2019-01-19T17:09:01.807Z,100583.05
2019-01-19T17:14:26.170Z,100575.77
2019-01-19T17:20:07.672Z,100569.67
2019-01-19T17:25:36.651Z,100562.73
2019-01-19T17:31:17.891Z,100564.94
2019-01-19T17:36:50.010Z,100564.44
2019-01-19T17:42:03.438Z,100568.53
2019-01-19T17:47:30.284Z,100568.84
2019-01-19T17:53:11.576Z,100568.47
2019-01-19T17:58:46.238Z,100576.36
2019-01-19T18:04:13.399Z,100578.11
2019-01-19T18:09:48.355Z,100577.55
2019-01-19T18:15:35.776Z,100573.17
2019-01-19T18:21:37.642Z,100572.02
2019-01-19T18:27:12.722Z,100569.30
2019-01-19T18:33:10.515Z,100569.17
2019-01-19T18:38:33.718Z,100564.73
2019-01-19T18:44:09.156Z,100566.28
2019-01-19T18:49:49.548Z,100567.03
2019-01-19T18:55:23.755Z,100559.78
2019-01-19T19:00:51.520Z,100566.62
2019-01-19T19:06:23.580Z,100558.61
2019-01-19T19:12:09.275Z,100557.98
2019-01-19T19:17:56.332Z,100552.03
2019-01-19T19:23:38.675Z,100552.66
2019-01-19T19:28:51.249Z,100555.61
2019-01-19T19:34:15.816Z,100557.05
2019-01-19T19:39:27.668Z,100550.66
2019-01-19T19:45:11.659Z,100545.09
2019-01-19T19:51:01.507Z,100544.24
2019-01-19T19:56:02.751Z,100549.44
2019-01-19T20:01:04.819Z,100551.28
2019-01-19T20:06:06.861Z,100544.89
2019-01-19T20:11:08.918Z,100546.97
2019-01-19T20:16:10.947Z,100540.62
2019-01-19T20:21:13.161Z,100543.39
2019-01-19T20:26:15.607Z,100539.45
2019-01-19T20:31:17.528Z,100544.47
2019-01-19T20:36:19.604Z,100549.29
2019-01-19T20:41:21.659Z,100541.23
2019-01-19T20:46:23.683Z,100531.06
2019-01-19T20:51:27.087Z,100547.09
2019-01-19T20:56:30.159Z,100530.22
2019-01-19T21:01:32.128Z,100529.98
2019-01-19T21:06:34.078Z,100533.77
2019-01-19T21:11:36.122Z,100533.22
2019-01-19T21:16:38.452Z,100529.53
2019-01-19T21:21:40.372Z,100528.33
2019-01-19T21:26:42.320Z,100527.76
2019-01-19T21:31:44.238Z,100521.09
2019-01-19T21:36:46.162Z,100531.01
2019-01-19T21:41:48.099Z,100525.35
2019-01-19T21:46:50.021Z,100520.95
2019-01-19T21:51:51.993Z,100521.53
2019-01-19T21:56:53.990Z,100523.07
2019-01-19T22:01:55.931Z,100525.91
2019-01-19T22:06:57.855Z,100520.38
2019-01-19T22:12:01.255Z,100526.66
2019-01-19T22:17:03.387Z,100523.08
2019-01-19T22:22:05.408Z,100520.20
2019-01-19T22:27:07.996Z,100520.25
2019-01-19T22:32:10.015Z,100518.47
2019-01-19T22:37:11.939Z,100517.88
2019-01-19T22:42:13.927Z,100514.92
2019-01-19T22:47:15.844Z,100521.70
2019-01-19T22:52:17.757Z,100520.80
2019-01-19T22:57:19.843Z,100521.00
2019-01-19T23:02:22.279Z,100515.97
2019-01-19T23:07:24.894Z,100521.04
2019-01-19T23:12:27.245Z,100512.13
2019-01-19T23:17:29.252Z,100519.02
2019-01-19T23:22:31.455Z,100516.14
2019-01-19T23:27:33.659Z,100514.03
2019-01-19T23:32:36.880Z,100510.01
2019-01-19T23:37:38.790Z,100518.30
2019-01-19T23:42:47.054Z,100506.64
2019-01-19T23:47:45.863Z,100501.86
2019-01-19T23:52:47.769Z,100502.86
2019-01-19T23:57:49.728Z,100502.72
